createdAt,value
2023-05-04T00:02:30.431Z,1.50
2023-05-04T00:05:55.125Z,1.40
2023-05-04T00:09:19.258Z,1.20
2023-05-04T00:12:43.183Z,1.50
2023-05-04T00:16:10.859Z,1.40
2023-05-04T00:19:35.527Z,2.00
2023-05-04T00:22:59.645Z,1.90
2023-05-04T00:26:24.365Z,1.40
2023-05-04T00:29:48.282Z,1.70
2023-05-04T00:33:13.980Z,1.70
2023-05-04T00:36:37.868Z,1.73
2023-05-04T00:40:01.757Z,1.77
2023-05-04T00:43:26.747Z,1.50
2023-05-04T00:46:50.646Z,1.67
2023-05-04T00:50:16.382Z,1.33
2023-05-04T00:53:40.935Z,1.57
2023-05-04T00:57:05.712Z,2.20
2023-05-04T01:00:29.516Z,1.77
2023-05-04T01:03:55.492Z,1.50
2023-05-04T01:07:27.897Z,1.87
2023-05-04T01:10:57.551Z,1.40
2023-05-04T01:14:22.872Z,2.00
2023-05-04T01:17:46.941Z,1.83
2023-05-04T01:21:11.300Z,1.73
2023-05-04T01:24:36.755Z,1.87
2023-05-04T01:28:06.356Z,1.73
2023-05-04T01:31:32.846Z,1.80
2023-05-04T01:34:57.836Z,2.23
2023-05-04T01:38:22.160Z,1.73
2023-05-04T01:41:47.124Z,1.70
2023-05-04T01:45:13.609Z,1.90
2023-05-04T01:48:37.423Z,1.80
2023-05-04T01:52:01.219Z,2.03
2023-05-04T01:55:25.038Z,2.20
2023-05-04T01:58:50.244Z,1.97
2023-05-04T02:02:14.120Z,2.60
2023-05-04T02:05:37.918Z,2.10
2023-05-04T02:09:03.300Z,1.70
2023-05-04T02:12:27.344Z,2.10
2023-05-04T02:15:52.622Z,1.77
2023-05-04T02:19:16.566Z,2.17
2023-05-04T02:22:40.951Z,2.07
2023-05-04T02:26:04.826Z,2.30
2023-05-04T02:29:28.697Z,2.20
2023-05-04T02:32:53.975Z,1.93
2023-05-04T02:36:19.165Z,1.97
2023-05-04T02:39:43.188Z,2.30
2023-05-04T02:43:06.999Z,2.03
2023-05-04T02:46:32.459Z,2.10
2023-05-04T02:49:57.659Z,1.80
2023-05-04T02:53:21.599Z,2.20
2023-05-04T02:56:45.739Z,1.93
2023-05-04T03:00:10.769Z,1.97
2023-05-04T03:03:34.773Z,1.87
2023-05-04T03:06:59.956Z,2.10
2023-05-04T03:10:23.822Z,1.77
2023-05-04T03:13:47.632Z,2.00
2023-05-04T03:17:11.506Z,1.90
2023-05-04T03:20:36.179Z,1.70
2023-05-04T03:24:01.670Z,2.10
2023-05-04T03:27:25.774Z,1.90
2023-05-04T03:30:49.641Z,1.67
2023-05-04T03:34:15.196Z,2.33
2023-05-04T03:37:39.153Z,1.73
2023-05-04T03:41:04.389Z,2.30
2023-05-04T03:44:28.445Z,2.10
2023-05-04T03:47:52.346Z,2.43
2023-05-04T03:51:17.725Z,2.47
2023-05-04T03:54:41.589Z,2.00
2023-05-04T03:58:07.386Z,2.17
2023-05-04T04:01:31.540Z,2.20
2023-05-04T04:04:55.500Z,2.30
2023-05-04T04:08:19.514Z,2.30
2023-05-04T04:11:45.093Z,2.00
2023-05-04T04:15:11.194Z,2.87
2023-05-04T04:18:35.057Z,2.30
2023-05-04T04:21:59.973Z,2.57
2023-05-04T04:25:24.214Z,2.80
2023-05-04T04:28:50.491Z,2.67
2023-05-04T04:32:15.575Z,2.07
2023-05-04T04:35:39.799Z,2.70
2023-05-04T04:39:05.851Z,2.50
2023-05-04T04:42:29.795Z,3.27
2023-05-04T04:45:54.450Z,2.27
2023-05-04T04:49:19.557Z,2.67
2023-05-04T04:52:43.300Z,2.13
2023-05-04T04:56:09.737Z,2.00
2023-05-04T04:59:33.726Z,2.40
2023-05-04T05:02:57.598Z,1.93
2023-05-04T05:06:23.753Z,2.30
2023-05-04T05:09:47.231Z,2.00
2023-05-04T05:13:11.756Z,2.20
2023-05-04T05:16:35.826Z,1.80
2023-05-04T05:19:59.628Z,1.83
2023-05-04T05:23:24.820Z,2.50
2023-05-04T05:26:48.653Z,2.00
2023-05-04T05:30:13.743Z,2.07
2023-05-04T05:33:37.539Z,2.40
2023-05-04T05:37:01.294Z,2.20
2023-05-04T05:40:26.460Z,2.80
2023-05-04T05:43:50.295Z,2.70
2023-05-04T05:47:14.590Z,2.90
2023-05-04T05:50:38.481Z,2.97
2023-05-04T05:54:02.267Z,3.07
2023-05-04T05:57:27.452Z,3.07
2023-05-04T06:00:51.274Z,2.90
2023-05-04T06:04:15.221Z,3.10
2023-05-04T06:07:39.121Z,2.83
2023-05-04T06:11:02.902Z,3.07
2023-05-04T06:14:28.104Z,3.17
2023-05-04T06:17:51.912Z,3.10
2023-05-04T06:21:15.660Z,3.00
2023-05-04T06:24:39.463Z,2.97
2023-05-04T06:28:03.852Z,2.87
2023-05-04T06:31:29.021Z,3.10
2023-05-04T06:34:55.345Z,3.37
2023-05-04T06:38:19.278Z,3.50
2023-05-04T06:41:43.755Z,4.20
2023-05-04T06:45:09.236Z,3.27
2023-05-04T06:48:34.162Z,3.20
2023-05-04T06:51:57.950Z,3.30
2023-05-04T06:55:21.943Z,3.50
2023-05-04T06:58:46.540Z,3.77
2023-05-04T07:02:10.445Z,3.60
2023-05-04T07:05:37.573Z,3.40
2023-05-04T07:09:01.199Z,4.40
2023-05-04T07:12:25.198Z,4.07
2023-05-04T07:15:48.733Z,3.60
2023-05-04T07:19:12.789Z,3.37
2023-05-04T07:22:38.022Z,4.20
2023-05-04T07:26:02.253Z,3.70
2023-05-04T07:29:26.446Z,3.87
2023-05-04T07:32:51.030Z,4.03
2023-05-04T07:36:14.853Z,3.53
2023-05-04T07:39:40.213Z,3.30
2023-05-04T07:43:04.058Z,3.20
2023-05-04T07:46:28.261Z,3.30
2023-05-04T07:49:52.088Z,3.07
2023-05-04T07:53:16.016Z,3.03
2023-05-04T07:56:40.967Z,3.40
2023-05-04T08:00:05.945Z,2.70
2023-05-04T08:03:37.213Z,3.00
2023-05-04T08:07:01.372Z,2.63
2023-05-04T08:10:25.921Z,2.60
2023-05-04T08:13:51.759Z,2.63
2023-05-04T08:17:15.756Z,2.83
2023-05-04T08:20:39.597Z,2.17
2023-05-04T08:24:04.230Z,3.00
2023-05-04T08:27:28.072Z,2.23
2023-05-04T08:30:53.279Z,2.70
2023-05-04T08:34:17.580Z,2.27
2023-05-04T08:37:41.429Z,2.27
2023-05-04T08:41:05.744Z,1.80
2023-05-04T08:44:31.267Z,1.87
2023-05-04T08:47:56.590Z,1.60
2023-05-04T08:51:21.218Z,1.80
2023-05-04T08:54:45.957Z,1.90
2023-05-04T08:58:12.075Z,1.60
2023-05-04T09:01:39.886Z,1.97
2023-05-04T09:05:07.687Z,1.67
2023-05-04T09:08:31.869Z,1.73
2023-05-04T09:11:55.709Z,1.50
2023-05-04T09:15:20.788Z,1.60
2023-05-04T09:18:45.813Z,2.03
2023-05-04T09:22:17.989Z,1.47
2023-05-04T09:25:49.265Z,1.87
2023-05-04T09:29:14.398Z,1.67
2023-05-04T09:32:45.761Z,1.70
2023-05-04T09:36:17.071Z,1.70
2023-05-04T09:39:55.410Z,2.07
2023-05-04T09:43:19.794Z,1.73
2023-05-04T09:46:44.167Z,1.63
2023-05-04T09:50:19.157Z,1.90
2023-05-04T09:53:45.078Z,1.80
2023-05-04T09:57:13.851Z,1.87
2023-05-04T10:00:38.669Z,1.30
2023-05-04T10:04:02.913Z,1.50
2023-05-04T10:07:26.844Z,1.87
2023-05-04T10:10:51.675Z,1.60
2023-05-04T10:14:16.912Z,1.90
2023-05-04T10:17:58.680Z,1.47
2023-05-04T10:21:31.775Z,1.30
2023-05-04T10:25:30.711Z,1.60
2023-05-04T10:29:04.963Z,1.93
2023-05-04T10:32:30.110Z,1.83
2023-05-04T10:35:55.405Z,1.80
2023-05-04T10:39:20.919Z,1.33
2023-05-04T10:42:45.517Z,1.80
2023-05-04T10:46:18.658Z,1.77
2023-05-04T10:49:43.661Z,1.80
2023-05-04T10:53:07.749Z,1.80
2023-05-04T10:56:31.627Z,1.50
2023-05-04T10:59:59.855Z,1.40
2023-05-04T11:03:25.020Z,1.67
2023-05-04T11:06:59.758Z,1.83
2023-05-04T11:10:25.345Z,1.70
2023-05-04T11:13:49.321Z,1.50
2023-05-04T11:20:41.434Z,1.73
2023-05-04T11:24:07.193Z,1.80
2023-05-04T11:27:32.810Z,1.67
2023-05-04T11:30:57.484Z,1.50
2023-05-04T11:34:22.590Z,1.50
2023-05-04T11:37:47.727Z,1.40
2023-05-04T11:41:13.227Z,1.30
2023-05-04T11:44:38.261Z,1.57
2023-05-04T11:48:03.458Z,1.93
2023-05-04T11:51:29.158Z,1.50
2023-05-04T11:54:57.894Z,1.33
2023-05-04T11:58:27.658Z,1.80
2023-05-04T12:01:51.658Z,1.43
2023-05-04T12:05:15.784Z,1.37
2023-05-04T12:08:42.886Z,1.33
2023-05-04T12:12:07.272Z,1.70
2023-05-04T12:15:35.180Z,1.70
2023-05-04T12:19:05.647Z,1.70
2023-05-04T12:22:30.317Z,1.40
2023-05-04T12:25:58.226Z,1.60
2023-05-04T12:29:22.163Z,1.90
2023-05-04T12:32:47.406Z,1.70
2023-05-04T12:36:11.505Z,1.43
2023-05-04T12:39:35.365Z,1.73
2023-05-04T12:42:59.289Z,1.80
2023-05-04T12:46:23.194Z,2.07
2023-05-04T12:49:48.455Z,2.20
2023-05-04T12:53:12.408Z,1.70
2023-05-04T12:56:36.461Z,2.13
2023-05-04T13:00:01.082Z,2.03
2023-05-04T13:03:26.108Z,2.10
2023-05-04T13:06:51.912Z,2.17
2023-05-04T13:10:15.813Z,1.97
2023-05-04T13:13:39.980Z,2.07
2023-05-04T13:17:05.076Z,2.07
2023-05-04T13:20:29.161Z,1.57
2023-05-04T13:23:54.459Z,2.20
2023-05-04T13:27:18.442Z,2.50
2023-05-04T13:30:42.556Z,2.10
2023-05-04T13:34:06.415Z,1.70
2023-05-04T13:37:30.368Z,2.00
2023-05-04T13:40:56.145Z,2.23
2023-05-04T13:44:20.415Z,1.80
2023-05-04T13:47:44.308Z,2.20
2023-05-04T13:51:08.246Z,2.07
2023-05-04T13:54:32.201Z,2.10
2023-05-04T13:57:57.524Z,2.03
2023-05-04T14:01:22.321Z,2.10
2023-05-04T14:04:46.285Z,2.20
2023-05-04T14:08:10.160Z,2.00
2023-05-04T14:11:34.002Z,1.70
2023-05-04T14:14:59.656Z,2.20
2023-05-04T14:18:23.581Z,2.03
2023-05-04T14:21:47.811Z,1.73
2023-05-04T14:25:11.622Z,1.80
2023-05-04T14:28:35.431Z,1.90
2023-05-04T14:32:00.704Z,1.60
2023-05-04T14:35:24.820Z,1.90
2023-05-04T14:38:49.802Z,1.90
2023-05-04T14:42:13.740Z,2.00
2023-05-04T14:45:37.584Z,1.90
2023-05-04T14:49:02.648Z,1.90
2023-05-04T14:52:26.842Z,1.90
2023-05-04T14:55:51.111Z,1.73
2023-05-04T14:59:14.714Z,2.13
2023-05-04T15:02:39.456Z,1.83
2023-05-04T15:06:04.833Z,2.13
2023-05-04T15:09:29.078Z,1.80
2023-05-04T15:12:53.202Z,2.00
2023-05-04T15:16:18.159Z,2.20
2023-05-04T15:19:43.550Z,2.67
2023-05-04T15:23:11.231Z,1.90
2023-05-04T15:26:35.807Z,1.87
2023-05-04T15:29:59.686Z,2.00
2023-05-04T15:33:23.586Z,1.57
2023-05-04T15:36:47.507Z,1.40
2023-05-04T15:40:14.487Z,1.67
2023-05-04T15:43:38.424Z,1.70
2023-05-04T15:47:02.646Z,1.50
2023-05-04T15:50:27.171Z,1.60
2023-05-04T15:53:52.106Z,1.40
2023-05-04T15:57:17.436Z,1.80
2023-05-04T16:00:41.255Z,1.70
2023-05-04T16:04:05.399Z,1.60
2023-05-04T16:07:29.266Z,1.50
2023-05-04T16:10:53.344Z,1.53
2023-05-04T16:14:18.506Z,1.40
2023-05-04T16:17:42.481Z,1.27
2023-05-04T16:21:06.370Z,1.60
2023-05-04T16:24:30.168Z,1.30
2023-05-04T16:27:53.743Z,2.00
2023-05-04T16:31:19.018Z,1.57
2023-05-04T16:34:42.871Z,1.80
2023-05-04T16:38:06.917Z,1.50
2023-05-04T16:41:31.270Z,1.80
2023-05-04T16:44:55.473Z,1.60
2023-05-04T16:48:20.871Z,1.70
2023-05-04T16:51:44.814Z,1.70
2023-05-04T16:55:11.808Z,1.97
2023-05-04T16:58:36.501Z,1.70
2023-05-04T17:02:00.394Z,1.63
2023-05-04T17:05:25.640Z,1.73
2023-05-04T17:08:49.508Z,1.70
2023-05-04T17:12:15.095Z,1.60
2023-05-04T17:15:39.011Z,1.40
2023-05-04T17:19:02.948Z,1.77
2023-05-04T17:22:28.166Z,1.97
2023-05-04T17:25:52.185Z,1.77
2023-05-04T17:29:16.043Z,1.63
2023-05-04T17:32:40.115Z,1.90
2023-05-04T17:36:05.900Z,1.30
2023-05-04T17:39:32.215Z,1.60
2023-05-04T17:42:56.228Z,2.00
2023-05-04T17:46:20.166Z,1.97
2023-05-04T17:49:44.100Z,1.80
2023-05-04T17:53:07.912Z,1.67
2023-05-04T17:56:32.789Z,1.70
2023-05-04T17:59:56.685Z,1.77
2023-05-04T18:03:20.574Z,1.63
2023-05-04T18:06:44.504Z,1.50
2023-05-04T18:10:09.158Z,2.00
2023-05-04T18:13:34.891Z,1.53
2023-05-04T18:16:58.776Z,1.93
2023-05-04T18:20:22.854Z,1.80
2023-05-04T18:23:46.839Z,1.73
2023-05-04T18:27:10.830Z,2.30
2023-05-04T18:30:36.193Z,1.40
2023-05-04T18:34:02.655Z,1.67
2023-05-04T18:37:26.720Z,1.70
2023-05-04T18:40:54.521Z,1.73
2023-05-04T18:44:18.182Z,1.90
2023-05-04T18:47:43.402Z,1.47
2023-05-04T18:51:07.696Z,1.97
2023-05-04T18:54:31.684Z,1.60
2023-05-04T18:57:55.116Z,1.70
2023-05-04T19:01:19.004Z,1.77
2023-05-04T19:04:46.744Z,1.67
2023-05-04T19:08:10.756Z,1.60
2023-05-04T19:11:34.580Z,1.90
2023-05-04T19:14:59.199Z,1.57
2023-05-04T19:18:23.284Z,1.90
2023-05-04T19:21:50.576Z,1.87
2023-05-04T19:25:23.594Z,2.20
2023-05-04T19:28:51.135Z,1.80
2023-05-04T19:32:23.373Z,1.83
2023-05-04T19:35:48.612Z,1.60
2023-05-04T19:39:13.854Z,1.67
2023-05-04T19:42:38.032Z,1.90
2023-05-04T19:46:03.709Z,2.00
2023-05-04T19:49:27.680Z,2.33
2023-05-04T19:52:51.660Z,2.20
2023-05-04T19:56:17.014Z,2.40
2023-05-04T19:59:40.986Z,2.00
2023-05-04T20:03:05.331Z,2.30
2023-05-04T20:06:29.418Z,2.23
2023-05-04T20:09:53.401Z,2.30
2023-05-04T20:13:18.657Z,2.13
2023-05-04T20:16:42.624Z,1.70
2023-05-04T20:20:08.447Z,1.97
2023-05-04T20:23:32.504Z,2.40
2023-05-04T20:26:56.308Z,1.60
2023-05-04T20:30:21.962Z,2.37
2023-05-04T20:33:45.506Z,2.00
2023-05-04T20:37:09.407Z,1.77
2023-05-04T20:40:33.313Z,1.90
2023-05-04T20:43:57.219Z,2.63
2023-05-04T20:47:22.354Z,1.73
2023-05-04T20:50:46.315Z,2.37
2023-05-04T20:54:10.291Z,2.10
2023-05-04T20:57:34.237Z,1.77
2023-05-04T21:01:02.865Z,1.80
2023-05-04T21:04:28.201Z,1.70
2023-05-04T21:07:52.710Z,1.93
2023-05-04T21:11:16.622Z,1.60
2023-05-04T21:14:40.450Z,1.77
2023-05-04T21:18:04.434Z,1.80
2023-05-04T21:21:29.655Z,1.73
2023-05-04T21:24:53.652Z,1.60
2023-05-04T21:28:17.541Z,1.73
2023-05-04T21:31:41.908Z,1.63
2023-05-04T21:35:06.764Z,1.80
2023-05-04T21:38:31.982Z,1.77
2023-05-04T21:41:55.848Z,1.70
2023-05-04T21:45:19.913Z,1.40
2023-05-04T21:48:43.824Z,1.77
2023-05-04T21:52:07.670Z,2.00
2023-05-04T21:55:32.550Z,2.00
2023-05-04T21:58:56.399Z,1.77
2023-05-04T22:02:20.371Z,1.50
2023-05-04T22:05:51.987Z,2.00
2023-05-04T22:09:16.758Z,1.83
2023-05-04T22:12:42.107Z,1.63
2023-05-04T22:16:08.770Z,1.87
2023-05-04T22:19:32.677Z,1.90
2023-05-04T22:22:56.608Z,1.90
2023-05-04T22:26:20.547Z,2.00
2023-05-04T22:29:45.791Z,1.70
2023-05-04T22:33:12.305Z,1.77
2023-05-04T22:36:36.209Z,1.60
2023-05-04T22:40:00.871Z,1.70
2023-05-04T22:43:24.956Z,1.93
2023-05-04T22:46:51.202Z,1.90
2023-05-04T22:50:15.154Z,2.00
2023-05-04T22:53:38.621Z,1.73
2023-05-04T22:57:03.190Z,1.70
2023-05-04T23:00:26.792Z,1.80
2023-05-04T23:03:52.273Z,1.60
2023-05-04T23:07:16.463Z,1.60
2023-05-04T23:10:44.859Z,1.50
2023-05-04T23:14:08.777Z,1.60
2023-05-04T23:17:33.938Z,1.77
2023-05-04T23:20:59.226Z,1.60
2023-05-04T23:24:23.010Z,1.77
2023-05-04T23:27:47.045Z,1.60
2023-05-04T23:31:11.307Z,1.43
2023-05-04T23:34:35.215Z,1.57
2023-05-04T23:38:00.040Z,1.73
2023-05-04T23:41:24.260Z,1.60
2023-05-04T23:44:48.058Z,1.57
2023-05-04T23:48:11.892Z,1.80
2023-05-04T23:51:35.657Z,1.73
2023-05-04T23:55:00.763Z,1.30
2023-05-04T23:58:24.702Z,1.37
